createdAt,value
2022-07-29T00:01:05.101Z,4.20
2022-07-29T00:03:32.018Z,3.60
2022-07-29T00:05:59.354Z,4.00
2022-07-29T00:08:27.924Z,5.50
2022-07-29T00:10:54.728Z,4.00
2022-07-29T00:13:32.448Z,4.10
2022-07-29T00:16:03.670Z,6.70
2022-07-29T00:18:33.459Z,3.70
2022-07-29T00:21:00.660Z,5.50
2022-07-29T00:23:27.514Z,4.10
2022-07-29T00:25:54.589Z,2.40
2022-07-29T00:28:21.445Z,3.00
2022-07-29T00:30:48.237Z,6.20
2022-07-29T00:33:15.116Z,3.20
2022-07-29T00:35:44.847Z,4.90
2022-07-29T00:38:19.491Z,3.80
2022-07-29T00:40:48.354Z,4.70
2022-07-29T00:43:16.302Z,2.60
2022-07-29T00:45:43.917Z,7.00
2022-07-29T00:48:11.536Z,7.70
2022-07-29T00:50:39.369Z,4.80
2022-07-29T00:53:10.007Z,3.90
2022-07-29T00:55:37.027Z,6.40
2022-07-29T00:58:04.894Z,3.20
2022-07-29T01:00:32.445Z,3.10
2022-07-29T01:02:59.677Z,4.10
2022-07-29T01:05:51.052Z,3.90
2022-07-29T01:08:18.038Z,4.30
2022-07-29T01:10:47.663Z,2.50
2022-07-29T01:13:17.505Z,3.00
2022-07-29T01:15:56.539Z,4.50
2022-07-29T01:18:45.518Z,3.30
2022-07-29T01:21:33.735Z,3.40
2022-07-29T01:24:25.975Z,2.80
2022-07-29T01:27:09.068Z,6.00
2022-07-29T01:29:44.969Z,5.50
2022-07-29T01:32:29.136Z,4.30
2022-07-29T01:35:17.595Z,4.00
2022-07-29T01:37:53.133Z,4.20
2022-07-29T01:40:41.875Z,3.60
2022-07-29T01:43:18.342Z,5.60
2022-07-29T01:45:54.112Z,4.50
2022-07-29T01:48:41.256Z,5.70
2022-07-29T01:51:34.652Z,5.40
2022-07-29T01:54:11.949Z,2.60
2022-07-29T01:56:41.782Z,3.60
2022-07-29T01:59:11.396Z,6.10
2022-07-29T02:01:43.923Z,3.60
2022-07-29T02:04:29.064Z,3.20
2022-07-29T02:07:03.933Z,5.70
2022-07-29T02:09:34.341Z,3.70
2022-07-29T02:12:04.233Z,5.80
2022-07-29T02:14:54.029Z,3.60
2022-07-29T02:17:28.966Z,4.90
2022-07-29T02:20:03.459Z,3.50
2022-07-29T02:22:34.657Z,5.20
2022-07-29T02:25:03.765Z,4.50
2022-07-29T02:27:35.689Z,4.10
2022-07-29T02:30:06.090Z,2.70
2022-07-29T02:32:36.532Z,4.60
2022-07-29T02:35:05.452Z,4.50
2022-07-29T02:37:33.962Z,8.00
2022-07-29T02:40:02.643Z,3.20
2022-07-29T02:42:32.237Z,3.00
2022-07-29T02:44:59.329Z,4.50
2022-07-29T02:47:41.911Z,2.80
2022-07-29T02:50:30.002Z,3.60
2022-07-29T02:53:12.764Z,5.20
2022-07-29T02:55:49.881Z,2.70
2022-07-29T02:58:30.750Z,3.50
2022-07-29T03:01:20.929Z,7.10
2022-07-29T03:03:52.804Z,4.10
2022-07-29T03:06:37.372Z,4.20
2022-07-29T03:09:12.825Z,3.10
2022-07-29T03:11:49.404Z,3.40
2022-07-29T03:14:21.913Z,3.70
2022-07-29T03:16:51.088Z,7.80
2022-07-29T03:19:19.472Z,2.70
2022-07-29T03:21:46.619Z,3.10
2022-07-29T03:24:27.853Z,2.30
2022-07-29T03:26:57.606Z,3.00
2022-07-29T03:29:25.888Z,5.30
2022-07-29T03:32:07.277Z,3.50
2022-07-29T03:34:37.424Z,3.10
2022-07-29T03:37:07.066Z,6.10
2022-07-29T03:39:41.807Z,4.10
2022-07-29T03:42:12.972Z,4.70
2022-07-29T03:44:43.936Z,2.60
2022-07-29T03:47:15.994Z,5.50
2022-07-29T03:49:45.660Z,5.40
2022-07-29T03:52:12.465Z,3.70
2022-07-29T03:54:40.152Z,1.60
2022-07-29T03:57:08.789Z,2.90
2022-07-29T03:59:36.787Z,4.80
2022-07-29T04:02:06.548Z,2.90
2022-07-29T04:04:37.264Z,3.40
2022-07-29T04:07:05.038Z,4.40
2022-07-29T04:09:32.737Z,4.70
2022-07-29T04:12:02.928Z,2.60
2022-07-29T04:14:33.614Z,3.80
2022-07-29T04:17:05.158Z,2.70
2022-07-29T04:19:33.165Z,4.30
2022-07-29T04:22:01.669Z,3.90
2022-07-29T04:24:29.167Z,2.90
2022-07-29T04:26:56.452Z,3.20
2022-07-29T04:29:23.176Z,3.70
2022-07-29T04:31:50.056Z,2.70
2022-07-29T04:34:17.370Z,2.90
2022-07-29T04:36:44.335Z,4.80
2022-07-29T04:39:11.588Z,5.40
2022-07-29T04:41:38.378Z,3.70
2022-07-29T04:44:07.138Z,5.60
2022-07-29T04:46:36.206Z,6.30
2022-07-29T04:49:04.856Z,6.10
2022-07-29T04:51:32.324Z,6.60
2022-07-29T04:53:59.286Z,8.60
2022-07-29T04:56:26.247Z,7.90
2022-07-29T04:58:53.784Z,5.90
2022-07-29T05:01:20.997Z,5.00
2022-07-29T05:03:48.007Z,4.80
2022-07-29T05:06:14.841Z,8.00
2022-07-29T05:08:42.015Z,5.90
2022-07-29T05:11:11.302Z,5.20
2022-07-29T05:13:46.346Z,8.40
2022-07-29T05:16:15.305Z,5.20
2022-07-29T05:18:43.301Z,5.70
2022-07-29T05:21:10.483Z,5.00
2022-07-29T05:23:37.352Z,5.00
2022-07-29T05:26:04.229Z,5.40
2022-07-29T05:28:36.288Z,4.70
2022-07-29T05:31:03.609Z,9.20
2022-07-29T05:33:36.459Z,5.40
2022-07-29T05:36:08.472Z,5.40
2022-07-29T05:38:37.044Z,5.70
2022-07-29T05:41:06.139Z,5.70
2022-07-29T05:43:33.043Z,4.40
2022-07-29T05:46:00.397Z,8.40
2022-07-29T05:48:27.717Z,8.70
2022-07-29T05:50:55.401Z,6.50
2022-07-29T05:53:22.367Z,5.60
2022-07-29T05:55:50.383Z,6.90
2022-07-29T05:58:17.454Z,6.50
2022-07-29T06:00:44.885Z,7.40
2022-07-29T06:03:11.861Z,7.30
2022-07-29T06:05:38.708Z,5.40
2022-07-29T06:08:08.046Z,5.30
2022-07-29T06:10:38.709Z,6.60
2022-07-29T06:13:05.694Z,9.20
2022-07-29T06:15:32.992Z,5.90
2022-07-29T06:18:01.697Z,4.70
2022-07-29T06:20:33.127Z,7.50
2022-07-29T06:23:00.880Z,7.20
2022-07-29T06:25:31.769Z,6.20
2022-07-29T06:27:58.990Z,5.10
2022-07-29T06:30:25.881Z,8.20
2022-07-29T06:32:52.910Z,4.70
2022-07-29T06:35:40.900Z,6.40
2022-07-29T06:38:13.812Z,4.90
2022-07-29T06:41:11.160Z,6.50
2022-07-29T06:43:51.918Z,8.00
2022-07-29T06:46:23.158Z,8.20
2022-07-29T06:48:51.356Z,7.60
2022-07-29T06:51:22.565Z,6.30
2022-07-29T06:54:00.618Z,8.00
2022-07-29T06:56:40.317Z,8.00
2022-07-29T06:59:09.900Z,7.40
2022-07-29T07:01:43.763Z,7.00
2022-07-29T07:04:12.380Z,7.00
2022-07-29T07:06:39.898Z,7.60
2022-07-29T07:09:07.725Z,6.50
2022-07-29T07:11:35.062Z,5.00
2022-07-29T07:14:03.984Z,6.90
2022-07-29T07:16:32.669Z,5.30
2022-07-29T07:18:59.721Z,8.10
2022-07-29T07:21:26.555Z,8.20
2022-07-29T07:23:57.302Z,6.00
2022-07-29T07:26:24.544Z,6.10
2022-07-29T07:28:51.246Z,6.90
2022-07-29T07:31:18.505Z,5.90
2022-07-29T07:33:45.821Z,6.40
2022-07-29T07:36:12.673Z,5.70
2022-07-29T07:38:39.613Z,5.60
2022-07-29T07:41:06.615Z,8.10
2022-07-29T07:43:33.695Z,8.10
2022-07-29T07:46:00.548Z,7.50
2022-07-29T07:48:27.795Z,5.50
2022-07-29T07:50:54.644Z,6.90
2022-07-29T07:53:22.616Z,5.20
2022-07-29T07:58:36.402Z,9.40
2022-07-29T08:01:04.046Z,7.60
2022-07-29T08:03:30.914Z,8.90
2022-07-29T08:05:58.300Z,8.60
2022-07-29T08:08:25.194Z,9.40
2022-07-29T08:10:56.612Z,11.00
2022-07-29T08:13:29.282Z,7.10
2022-07-29T08:16:01.868Z,6.70
2022-07-29T08:18:31.744Z,5.90
2022-07-29T08:20:59.619Z,7.50
2022-07-29T08:23:32.881Z,5.40
2022-07-29T08:26:14.942Z,5.20
2022-07-29T08:28:46.837Z,5.40
2022-07-29T08:31:15.605Z,7.20
2022-07-29T08:33:43.922Z,6.80
2022-07-29T08:36:11.275Z,6.70
2022-07-29T08:38:38.093Z,5.10
2022-07-29T08:41:04.852Z,4.70
2022-07-29T08:43:32.967Z,7.10
2022-07-29T08:45:59.927Z,7.50
2022-07-29T08:48:26.732Z,6.80
2022-07-29T08:50:58.094Z,7.60
2022-07-29T08:53:29.079Z,5.20
2022-07-29T08:55:57.167Z,5.70
2022-07-29T08:58:26.016Z,4.60
2022-07-29T09:00:56.371Z,7.70
2022-07-29T09:03:32.953Z,8.30
2022-07-29T09:06:00.611Z,6.50
2022-07-29T09:08:29.229Z,7.40
2022-07-29T09:10:59.631Z,7.10
2022-07-29T09:13:27.255Z,5.50
2022-07-29T09:15:55.065Z,6.60
2022-07-29T09:18:41.012Z,4.00
2022-07-29T09:21:32.752Z,6.60
2022-07-29T09:24:14.565Z,5.30
2022-07-29T09:26:46.556Z,4.20
2022-07-29T09:29:20.128Z,7.40
2022-07-29T09:31:53.664Z,6.00
2022-07-29T09:34:31.324Z,5.90
2022-07-29T09:36:59.101Z,5.00
2022-07-29T09:39:41.178Z,5.90
2022-07-29T09:42:08.408Z,4.90
2022-07-29T09:44:51.644Z,6.80
2022-07-29T09:47:22.847Z,3.90
2022-07-29T09:49:59.295Z,6.10
2022-07-29T09:52:31.325Z,5.40
2022-07-29T09:55:13.780Z,5.40
2022-07-29T09:57:46.779Z,6.40
2022-07-29T10:00:16.656Z,7.30
2022-07-29T10:02:45.561Z,5.90
2022-07-29T10:05:36.762Z,6.60
2022-07-29T10:08:04.297Z,5.40
2022-07-29T10:10:37.689Z,7.60
2022-07-29T10:13:15.379Z,4.20
2022-07-29T10:15:46.994Z,5.60
2022-07-29T10:18:18.899Z,7.40
2022-07-29T10:20:46.104Z,7.70
2022-07-29T10:23:13.844Z,7.10
2022-07-29T10:25:46.007Z,9.50
2022-07-29T10:28:16.515Z,8.40
2022-07-29T10:30:46.605Z,6.20
2022-07-29T10:34:03.313Z,6.10
2022-07-29T10:36:56.157Z,6.10
2022-07-29T10:39:54.491Z,5.30
2022-07-29T10:42:33.242Z,9.00
2022-07-29T10:45:04.883Z,7.80
2022-07-29T10:47:32.363Z,10.70
2022-07-29T10:50:07.479Z,7.60
2022-07-29T10:52:59.592Z,5.20
2022-07-29T10:55:33.493Z,5.30
2022-07-29T10:58:19.142Z,6.40
2022-07-29T11:00:53.270Z,5.40
2022-07-29T11:03:50.351Z,6.70
2022-07-29T11:06:26.765Z,6.60
2022-07-29T11:09:25.768Z,5.20
2022-07-29T11:12:25.324Z,5.90
2022-07-29T11:14:53.380Z,7.00
2022-07-29T11:17:20.426Z,5.10
2022-07-29T11:19:52.108Z,6.10
2022-07-29T11:22:37.064Z,5.90
2022-07-29T11:25:19.040Z,6.00
2022-07-29T11:28:22.731Z,5.50
2022-07-29T11:30:56.108Z,3.90
2022-07-29T11:33:56.064Z,7.40
2022-07-29T11:36:28.299Z,6.30
2022-07-29T11:39:36.829Z,5.60
2022-07-29T11:42:17.649Z,6.30
2022-07-29T11:45:40.304Z,6.30
2022-07-29T11:48:29.521Z,8.90
2022-07-29T11:50:49.242Z,8.00
2022-07-29T11:53:17.304Z,4.80
2022-07-29T11:55:51.595Z,6.90
2022-07-29T11:58:27.209Z,6.10
2022-07-29T12:00:55.582Z,6.10
2022-07-29T12:03:33.490Z,6.40
2022-07-29T12:06:03.275Z,6.40
2022-07-29T12:08:31.755Z,7.60
2022-07-29T12:10:58.553Z,6.30
2022-07-29T12:13:37.246Z,7.70
2022-07-29T12:16:05.593Z,7.60
2022-07-29T12:18:33.191Z,6.60
2022-07-29T12:21:05.553Z,6.30
2022-07-29T12:23:34.885Z,6.60
2022-07-29T12:26:07.715Z,6.40
2022-07-29T12:28:39.994Z,7.30
2022-07-29T12:31:44.102Z,7.30
2022-07-29T12:34:02.696Z,6.30
2022-07-29T12:36:29.671Z,9.80
2022-07-29T12:38:56.669Z,8.20
2022-07-29T12:41:23.444Z,7.20
2022-07-29T12:43:55.553Z,4.70
2022-07-29T12:46:22.701Z,7.10
2022-07-29T12:48:58.445Z,6.30
2022-07-29T12:51:34.609Z,8.00
2022-07-29T12:54:14.600Z,5.70
2022-07-29T12:56:45.126Z,7.20
2022-07-29T12:59:23.630Z,7.80
2022-07-29T13:01:53.546Z,5.70
2022-07-29T13:04:34.498Z,6.10
2022-07-29T13:07:08.449Z,8.50
2022-07-29T13:09:46.546Z,6.00
2022-07-29T13:12:14.877Z,4.00
2022-07-29T13:14:47.746Z,6.00
2022-07-29T13:17:21.766Z,6.20
2022-07-29T13:19:51.504Z,6.00
2022-07-29T13:22:23.433Z,9.40
2022-07-29T13:24:57.500Z,6.80
2022-07-29T13:27:28.425Z,5.40
2022-07-29T13:29:58.573Z,5.30
2022-07-29T13:32:28.998Z,8.50
2022-07-29T13:35:05.359Z,5.40
2022-07-29T13:37:35.274Z,5.90
2022-07-29T13:40:05.281Z,6.10
2022-07-29T13:42:33.706Z,5.50
2022-07-29T13:45:01.927Z,8.60
2022-07-29T13:47:32.592Z,6.00
2022-07-29T13:50:02.551Z,6.40
2022-07-29T13:52:29.756Z,6.50
2022-07-29T13:54:57.450Z,5.50
2022-07-29T13:57:24.420Z,5.50
2022-07-29T13:59:54.314Z,6.40
2022-07-29T14:02:25.282Z,5.20
2022-07-29T14:04:55.434Z,7.00
2022-07-29T14:07:23.478Z,6.10
2022-07-29T14:09:51.076Z,5.90
2022-07-29T14:12:18.485Z,6.80
2022-07-29T14:14:45.353Z,7.20
2022-07-29T14:17:15.549Z,7.40
2022-07-29T14:19:42.952Z,7.30
2022-07-29T14:22:09.995Z,7.10
2022-07-29T14:24:39.270Z,7.40
2022-07-29T14:27:08.628Z,4.90
2022-07-29T14:29:38.042Z,7.70
2022-07-29T14:32:11.599Z,7.40
2022-07-29T14:34:39.673Z,6.20
2022-07-29T14:37:07.204Z,6.10
2022-07-29T14:39:42.791Z,9.60
2022-07-29T14:42:12.989Z,9.70
2022-07-29T14:44:42.532Z,9.30
2022-07-29T14:47:09.920Z,8.00
2022-07-29T14:49:36.772Z,7.30
2022-07-29T14:52:04.327Z,10.00
2022-07-29T14:54:31.172Z,8.80
2022-07-29T14:56:58.647Z,10.30
2022-07-29T14:59:27.361Z,10.30
2022-07-29T15:01:55.090Z,10.80
2022-07-29T15:04:22.063Z,11.80
2022-07-29T15:06:49.396Z,12.90
2022-07-29T15:09:16.551Z,13.40
2022-07-29T15:11:43.473Z,11.80
2022-07-29T15:14:10.795Z,11.50
2022-07-29T15:16:43.499Z,12.50
2022-07-29T15:19:11.664Z,10.60
2022-07-29T15:21:47.907Z,11.40
2022-07-29T15:24:25.703Z,11.60
2022-07-29T15:26:52.507Z,11.00
2022-07-29T15:29:20.871Z,12.10
2022-07-29T15:31:47.836Z,10.90
2022-07-29T15:34:14.811Z,11.50
2022-07-29T15:36:52.049Z,13.30
2022-07-29T15:39:21.424Z,11.90
2022-07-29T15:41:48.386Z,12.90
2022-07-29T15:44:15.221Z,11.00
2022-07-29T15:47:01.018Z,12.70
2022-07-29T15:49:47.666Z,12.30
2022-07-29T15:52:26.146Z,14.40
2022-07-29T15:54:58.014Z,12.40
2022-07-29T15:57:25.896Z,12.60
2022-07-29T15:59:53.353Z,13.60
2022-07-29T16:02:20.794Z,15.40
2022-07-29T16:04:47.795Z,16.40
2022-07-29T16:07:15.594Z,17.30
2022-07-29T16:09:47.060Z,16.00
2022-07-29T16:12:18.069Z,17.80
2022-07-29T16:14:44.962Z,21.30
2022-07-29T16:17:14.708Z,20.50
2022-07-29T16:19:43.629Z,19.80
2022-07-29T16:22:12.445Z,18.50
2022-07-29T16:24:40.114Z,22.30
2022-07-29T16:27:07.829Z,23.00
2022-07-29T16:29:37.251Z,21.00
2022-07-29T16:32:06.390Z,20.80
2022-07-29T16:34:33.814Z,20.00
2022-07-29T16:37:00.928Z,19.60
2022-07-29T16:39:27.973Z,21.50
2022-07-29T16:41:58.286Z,25.20
2022-07-29T16:44:27.195Z,16.50
2022-07-29T16:46:56.075Z,17.80
2022-07-29T16:49:25.019Z,18.60
2022-07-29T16:51:51.869Z,19.60
2022-07-29T16:54:18.724Z,17.30
2022-07-29T16:56:46.064Z,17.00
2022-07-29T16:59:13.817Z,14.40
2022-07-29T17:01:40.751Z,14.10
2022-07-29T17:04:07.771Z,14.60
2022-07-29T17:06:39.146Z,16.10
2022-07-29T17:09:08.823Z,15.10
2022-07-29T17:11:53.087Z,14.00
2022-07-29T17:14:29.235Z,14.60
2022-07-29T17:17:03.230Z,13.20
2022-07-29T17:19:34.046Z,14.00
2022-07-29T17:22:17.223Z,13.80
2022-07-29T17:24:47.244Z,13.30
2022-07-29T17:27:15.098Z,12.50
2022-07-29T17:29:42.024Z,11.90
2022-07-29T17:32:10.607Z,11.30
2022-07-29T17:34:40.166Z,12.10
2022-07-29T17:37:09.604Z,12.80
2022-07-29T17:39:40.788Z,12.90
2022-07-29T17:42:11.977Z,13.40
2022-07-29T17:44:40.396Z,10.20
2022-07-29T17:47:16.065Z,10.50
2022-07-29T17:49:45.109Z,12.20
2022-07-29T17:52:12.134Z,10.00
2022-07-29T17:54:39.016Z,10.00
2022-07-29T17:57:05.816Z,10.10
2022-07-29T17:59:32.650Z,9.10
2022-07-29T18:01:59.460Z,9.50
2022-07-29T18:04:26.522Z,8.60
2022-07-29T18:06:53.940Z,6.80
2022-07-29T18:09:20.673Z,8.50
2022-07-29T18:11:48.883Z,6.80
2022-07-29T18:14:17.093Z,7.20
2022-07-29T18:16:43.977Z,6.80
2022-07-29T18:19:10.912Z,7.70
2022-07-29T18:21:51.302Z,6.80
2022-07-29T18:24:25.686Z,8.90
2022-07-29T18:26:53.212Z,7.60
2022-07-29T18:29:19.921Z,9.40
2022-07-29T18:31:46.754Z,8.40
2022-07-29T18:34:13.663Z,7.30
2022-07-29T18:36:40.472Z,7.60
2022-07-29T18:39:07.293Z,6.30
2022-07-29T18:41:35.706Z,6.00
2022-07-29T18:44:17.826Z,4.50
2022-07-29T18:46:44.846Z,5.90
2022-07-29T18:49:15.120Z,6.40
2022-07-29T18:51:42.013Z,9.10
2022-07-29T18:54:10.140Z,7.80
2022-07-29T18:56:37.467Z,5.90
2022-07-29T18:59:05.208Z,4.80
2022-07-29T19:01:32.382Z,5.70
2022-07-29T19:04:00.257Z,6.20
2022-07-29T19:06:27.168Z,5.80
2022-07-29T19:08:54.120Z,6.60
2022-07-29T19:11:20.979Z,7.00
2022-07-29T19:13:47.829Z,5.70
2022-07-29T19:16:15.899Z,7.10
2022-07-29T19:18:43.634Z,6.50
2022-07-29T19:21:11.105Z,5.30
2022-07-29T19:24:00.684Z,6.30
2022-07-29T19:26:26.228Z,6.10
2022-07-29T19:28:53.746Z,6.70
2022-07-29T19:31:20.647Z,7.20
2022-07-29T19:33:47.476Z,5.70
2022-07-29T19:36:14.247Z,8.30
2022-07-29T19:38:41.495Z,7.60
2022-07-29T19:41:08.651Z,7.70
2022-07-29T19:43:51.173Z,6.80
2022-07-29T19:46:22.028Z,7.10
2022-07-29T19:48:50.078Z,6.50
2022-07-29T19:51:17.571Z,7.00
2022-07-29T19:53:44.611Z,6.80
2022-07-29T19:56:11.564Z,8.90
2022-07-29T19:58:40.531Z,7.50
2022-07-29T20:01:10.497Z,7.20
2022-07-29T20:03:44.889Z,8.10
2022-07-29T20:06:11.935Z,7.50
2022-07-29T20:08:39.893Z,8.40
2022-07-29T20:11:07.087Z,7.20
2022-07-29T20:13:35.349Z,9.50
2022-07-29T20:16:08.299Z,9.90
2022-07-29T20:18:35.201Z,7.60
2022-07-29T20:21:03.870Z,7.00
2022-07-29T20:23:33.495Z,8.50
2022-07-29T20:26:00.714Z,6.90
2022-07-29T20:28:27.705Z,9.90
2022-07-29T20:30:54.556Z,6.90
2022-07-29T20:33:21.522Z,7.00
2022-07-29T20:35:48.266Z,6.00
2022-07-29T20:38:18.149Z,6.30
2022-07-29T20:40:45.980Z,6.50
2022-07-29T20:43:12.844Z,8.30
2022-07-29T20:45:39.925Z,6.70
2022-07-29T20:48:08.274Z,7.20
2022-07-29T20:50:35.393Z,7.70
2022-07-29T20:53:02.162Z,7.80
2022-07-29T20:55:29.352Z,7.60
2022-07-29T20:57:56.169Z,8.60
2022-07-29T21:00:23.191Z,11.80
2022-07-29T21:02:50.061Z,6.70
2022-07-29T21:05:17.197Z,9.80
2022-07-29T21:07:44.225Z,9.80
2022-07-29T21:10:11.698Z,6.20
2022-07-29T21:12:38.523Z,8.20
2022-07-29T21:15:06.698Z,8.30
2022-07-29T21:17:36.224Z,8.10
2022-07-29T21:20:06.799Z,8.40
2022-07-29T21:22:33.844Z,6.50
2022-07-29T21:25:00.938Z,6.50
2022-07-29T21:27:46.249Z,7.20
2022-07-29T21:30:13.160Z,8.60
2022-07-29T21:32:39.967Z,8.20
2022-07-29T21:35:15.198Z,9.80
2022-07-29T21:37:54.773Z,10.20
2022-07-29T21:40:21.740Z,7.30
2022-07-29T21:42:48.471Z,7.70
2022-07-29T21:45:16.609Z,6.90
2022-07-29T21:47:43.395Z,10.10
2022-07-29T21:50:10.232Z,9.30
2022-07-29T21:52:37.355Z,8.10
2022-07-29T21:55:04.942Z,7.20
2022-07-29T21:57:32.049Z,8.10
2022-07-29T22:00:02.621Z,7.70
2022-07-29T22:02:39.396Z,7.20
2022-07-29T22:05:06.606Z,8.20
2022-07-29T22:07:55.600Z,9.00
2022-07-29T22:10:20.882Z,9.60
2022-07-29T22:12:52.199Z,8.00
2022-07-29T22:15:19.804Z,10.30
2022-07-29T22:17:47.045Z,7.20
2022-07-29T22:20:14.279Z,8.40
2022-07-29T22:22:41.950Z,10.30
2022-07-29T22:25:10.654Z,8.90
2022-07-29T22:27:38.736Z,10.90
2022-07-29T22:30:08.171Z,8.00
2022-07-29T22:32:35.104Z,9.80
2022-07-29T22:35:01.985Z,8.00
2022-07-29T22:37:29.074Z,9.60
2022-07-29T22:39:56.558Z,10.50
2022-07-29T22:42:23.624Z,9.10
2022-07-29T22:44:50.363Z,9.00
2022-07-29T22:47:17.425Z,10.40
2022-07-29T22:49:44.216Z,8.80
2022-07-29T22:52:10.950Z,8.40
2022-07-29T22:54:38.473Z,9.00
2022-07-29T22:57:06.259Z,10.40
2022-07-29T22:59:33.055Z,11.30
2022-07-29T23:01:59.996Z,11.60
2022-07-29T23:04:26.907Z,13.60
2022-07-29T23:06:53.743Z,11.50
2022-07-29T23:09:20.785Z,9.90
2022-07-29T23:11:47.563Z,8.90
2022-07-29T23:14:14.264Z,8.70
2022-07-29T23:16:41.086Z,10.10
2022-07-29T23:19:08.720Z,10.20
2022-07-29T23:21:35.502Z,11.00
2022-07-29T23:24:02.257Z,9.10
2022-07-29T23:26:29.129Z,7.80
2022-07-29T23:28:56.054Z,11.40
2022-07-29T23:31:22.890Z,10.00
2022-07-29T23:33:49.705Z,8.50
2022-07-29T23:36:16.914Z,13.90
2022-07-29T23:38:44.308Z,9.40
2022-07-29T23:41:11.140Z,10.30
2022-07-29T23:43:38.248Z,12.30
2022-07-29T23:46:05.106Z,10.50
2022-07-29T23:48:33.388Z,10.30
2022-07-29T23:51:01.223Z,9.80
2022-07-29T23:53:28.697Z,9.60
2022-07-29T23:55:56.683Z,9.70
2022-07-29T23:58:23.609Z,11.30
